| |
Missouri Department of Transportation

Social Media Facebook Twitter Flickr Blog YouTube RSS

Current METAR Information for All MoDOT Locations 
AWOS Home - General Info for all Airports
Current AWOS for all Airports - Current METAR for all Airports
Glossary - Disclaimer - Other Links


Automated Weather Observation System
Date: 08-22-2014
 
Location Current METAR Record
HANNIBAL METAR KHAE 221526Z AUTO 17007KT 10SM CLR 27/23 A2997 RMK AO2 LTG DSNT NE
HARRISONVILLE  No current data available
LEBANON METAR KLBO 221535Z AUTO 24013KT 10SM CLR 32/19 A3004 RMK AO2
MALDEN  No current data available
MARSHALL METAR KMHL 221604Z AUTO 22005KT 7SM CLR 30/24 A2998 RMK AO2
MARYVILLE  No current data available
MEXICO  No current data available
MOBERLY  No current data available
NEVADA METAR KNVD 221557Z AUTO 22009G15KT 10SM CLR 32/22 A2999 RMK AO2
PIEDMONT  No current data available
SIKESTON  No current data available
SULLIVAN METAR KUUV 221541Z AUTO 22007KT 10SM CLR 31/22 A3004 RMK AO2
WARSAW  No current data available
About Us
How Do I...
Contact Us
Missouri Department of Transportation
Central Office
105 W. Capitol Avenue
Jefferson City, MO 65102
1-888-ASK-MODOT (275-6636)
1-866-831-6277 (Motor Carrier Services)
Drivers License Offices
horz_bar
| | |
Missouri State Government
© 2013 Missouri Department of Transportation. All Rights Reserved.   Privacy Policy.
 
 
 
 
RSS FeedYoutubeBlogFlickrTwitter Facebook